createdAt,value
2023-02-22T00:00:23.534Z,1019.0
2023-02-22T00:15:23.711Z,1019.0
2023-02-22T00:30:23.793Z,1019.0
2023-02-22T00:45:23.737Z,1019.0
2023-02-22T01:00:23.782Z,1019.0
2023-02-22T01:15:23.847Z,1019.0
2023-02-22T01:30:23.959Z,1019.0
2023-02-22T01:45:23.996Z,1019.0
2023-02-22T02:00:23.998Z,1019.0
2023-02-22T02:15:24.066Z,1018.5
2023-02-22T02:30:33.028Z,1018.0
2023-02-22T02:45:33.164Z,1018.0
2023-02-22T03:00:33.238Z,1018.0
2023-02-22T03:15:23.136Z,1018.0
2023-02-22T03:30:23.366Z,1018.0
2023-02-22T03:45:23.220Z,1018.0
2023-02-22T04:00:23.233Z,1018.0
2023-02-22T04:15:23.240Z,1018.0
2023-02-22T04:30:23.468Z,1018.0
2023-02-22T04:45:23.664Z,1018.0
2023-02-22T05:00:23.658Z,1018.0
2023-02-22T05:15:23.466Z,1018.0
2023-02-22T05:30:24.398Z,1018.0
2023-02-22T05:45:23.954Z,1018.0
2023-02-22T06:00:23.615Z,1017.0
2023-02-22T06:15:23.650Z,1017.0
2023-02-22T06:30:24.095Z,1017.0
2023-02-22T06:45:23.934Z,1018.0
2023-02-22T07:00:24.192Z,1017.7
2023-02-22T07:15:33.304Z,1018.0
2023-02-22T07:30:33.230Z,1017.0
2023-02-22T07:45:33.393Z,1017.0
2023-02-22T08:00:33.571Z,1017.0
2023-02-22T08:15:23.232Z,1017.0
2023-02-22T08:30:23.277Z,1017.0
2023-02-22T08:45:23.578Z,1017.0
2023-02-22T09:00:23.254Z,1017.0
2023-02-22T09:15:23.474Z,1017.0
2023-02-22T09:30:23.926Z,1017.0
2023-02-22T09:45:23.525Z,1017.0
2023-02-22T10:00:23.588Z,1017.0
2023-02-22T10:15:23.509Z,1017.0
2023-02-22T10:30:25.403Z,1017.0
2023-02-22T10:45:23.631Z,1017.0
2023-02-22T11:00:24.630Z,1016.7
2023-02-22T11:15:23.375Z,1016.0
2023-02-22T11:30:23.290Z,1016.0
2023-02-22T11:45:23.445Z,1016.0
2023-02-22T12:00:23.340Z,1015.7
2023-02-22T12:15:23.464Z,1015.0
2023-02-22T12:30:23.587Z,1015.0
2023-02-22T12:45:23.728Z,1015.0
2023-02-22T13:00:23.676Z,1015.0
2023-02-22T13:15:23.579Z,1015.0
2023-02-22T13:30:23.731Z,1015.0
2023-02-22T13:45:23.912Z,1015.0
2023-02-22T14:00:23.960Z,1015.0
2023-02-22T14:15:30.164Z,1015.0
2023-02-22T14:15:30.727Z,1015.0
2023-02-22T14:30:23.904Z,1015.0
2023-02-22T14:45:23.992Z,1015.0
2023-02-22T15:00:32.904Z,1015.0
2023-02-22T15:15:23.102Z,1015.0
2023-02-22T15:30:23.269Z,1015.0
2023-02-22T15:45:23.128Z,1015.0
2023-02-22T16:00:23.193Z,1015.0
2023-02-22T16:15:23.115Z,1015.0
2023-02-22T16:30:24.739Z,1015.0
2023-02-22T16:45:23.445Z,1015.0
2023-02-22T17:00:23.471Z,1015.0
2023-02-22T17:15:23.484Z,1015.0
2023-02-22T17:30:24.110Z,1015.0
2023-02-22T17:45:23.508Z,1016.0
2023-02-22T18:00:23.453Z,1016.0
2023-02-22T18:15:23.106Z,1016.0
2023-02-22T18:30:23.030Z,1016.0
2023-02-22T18:45:23.051Z,1016.0
2023-02-22T19:00:22.984Z,1016.0
2023-02-22T19:15:23.178Z,1016.0
2023-02-22T19:30:23.373Z,1016.0
2023-02-22T19:45:23.414Z,1016.0
2023-02-22T20:00:23.345Z,1016.0
2023-02-22T20:15:23.691Z,1016.0
2023-02-22T20:30:23.570Z,1016.0
2023-02-22T20:45:23.586Z,1016.0
2023-02-22T21:00:23.524Z,1016.0
2023-02-22T21:15:23.573Z,1016.0
2023-02-22T21:30:23.705Z,1016.0
2023-02-22T21:45:23.855Z,1016.0
2023-02-22T22:00:24.085Z,1016.0
2023-02-22T22:15:23.819Z,1016.0
2023-02-22T22:30:23.870Z,1016.0
2023-02-22T22:45:23.890Z,1016.0
2023-02-22T23:15:23.422Z,1016.0
2023-02-22T23:30:23.462Z,1016.0
2023-02-22T23:45:23.424Z,1016.0
